sensor_id;sensor_type;location;lat;lon;timestamp;P1;durP1;ratioP1;P2;durP2;ratioP2
9224;SDS011;4647;48.072;11.616;2023-02-28T00:01:45;4.63;;;4.07;;
9224;SDS011;4647;48.072;11.616;2023-02-28T00:04:13;5.97;;;4.17;;
9224;SDS011;4647;48.072;11.616;2023-02-28T00:06:42;5.33;;;3.57;;
9224;SDS011;4647;48.072;11.616;2023-02-28T00:09:10;6.10;;;4.30;;
9224;SDS011;4647;48.072;11.616;2023-02-28T00:11:39;5.83;;;4.23;;
9224;SDS011;4647;48.072;11.616;2023-02-28T00:14:07;6.73;;;4.47;;
9224;SDS011;4647;48.072;11.616;2023-02-28T00:16:38;7.50;;;4.27;;
9224;SDS011;4647;48.072;11.616;2023-02-28T00:19:07;5.90;;;4.23;;
9224;SDS011;4647;48.072;11.616;2023-02-28T00:21:38;5.33;;;4.40;;
9224;SDS011;4647;48.072;11.616;2023-02-28T00:24:08;6.33;;;4.40;;
9224;SDS011;4647;48.072;11.616;2023-02-28T00:26:36;4.40;;;4.00;;
9224;SDS011;4647;48.072;11.616;2023-02-28T00:29:05;4.97;;;4.30;;
9224;SDS011;4647;48.072;11.616;2023-02-28T00:31:34;5.30;;;4.23;;
9224;SDS011;4647;48.072;11.616;2023-02-28T00:34:05;5.53;;;4.40;;
9224;SDS011;4647;48.072;11.616;2023-02-28T00:36:33;6.20;;;4.50;;
9224;SDS011;4647;48.072;11.616;2023-02-28T00:39:01;5.10;;;4.37;;
9224;SDS011;4647;48.072;11.616;2023-02-28T00:41:30;4.40;;;4.00;;
9224;SDS011;4647;48.072;11.616;2023-02-28T00:43:58;5.97;;;4.60;;
9224;SDS011;4647;48.072;11.616;2023-02-28T00:46:27;5.63;;;4.50;;
9224;SDS011;4647;48.072;11.616;2023-02-28T00:48:56;6.33;;;4.83;;
9224;SDS011;4647;48.072;11.616;2023-02-28T00:51:27;7.43;;;4.93;;
9224;SDS011;4647;48.072;11.616;2023-02-28T00:53:55;8.70;;;4.67;;
9224;SDS011;4647;48.072;11.616;2023-02-28T00:56:24;5.40;;;4.30;;
9224;SDS011;4647;48.072;11.616;2023-02-28T00:58:52;5.53;;;4.73;;
9224;SDS011;4647;48.072;11.616;2023-02-28T01:01:20;6.73;;;4.60;;
9224;SDS011;4647;48.072;11.616;2023-02-28T01:03:49;6.47;;;4.70;;
9224;SDS011;4647;48.072;11.616;2023-02-28T01:06:17;6.53;;;5.13;;
9224;SDS011;4647;48.072;11.616;2023-02-28T01:08:48;5.63;;;4.37;;
9224;SDS011;4647;48.072;11.616;2023-02-28T01:11:17;5.60;;;5.00;;
9224;SDS011;4647;48.072;11.616;2023-02-28T01:13:46;7.40;;;5.37;;
9224;SDS011;4647;48.072;11.616;2023-02-28T01:16:14;7.77;;;4.93;;
9224;SDS011;4647;48.072;11.616;2023-02-28T01:18:43;7.73;;;4.90;;
9224;SDS011;4647;48.072;11.616;2023-02-28T01:21:12;6.37;;;5.13;;
9224;SDS011;4647;48.072;11.616;2023-02-28T01:23:45;6.10;;;5.10;;
9224;SDS011;4647;48.072;11.616;2023-02-28T01:26:17;7.43;;;5.10;;
9224;SDS011;4647;48.072;11.616;2023-02-28T01:28:47;6.23;;;4.90;;
9224;SDS011;4647;48.072;11.616;2023-02-28T01:31:16;7.03;;;5.60;;
9224;SDS011;4647;48.072;11.616;2023-02-28T01:33:46;6.87;;;5.80;;
9224;SDS011;4647;48.072;11.616;2023-02-28T01:36:16;5.40;;;4.60;;
9224;SDS011;4647;48.072;11.616;2023-02-28T01:38:48;6.67;;;5.30;;
9224;SDS011;4647;48.072;11.616;2023-02-28T01:41:17;6.13;;;5.23;;
9224;SDS011;4647;48.072;11.616;2023-02-28T01:43:56;5.43;;;4.93;;
9224;SDS011;4647;48.072;11.616;2023-02-28T01:46:28;5.90;;;5.10;;
9224;SDS011;4647;48.072;11.616;2023-02-28T01:48:59;7.70;;;5.57;;
9224;SDS011;4647;48.072;11.616;2023-02-28T01:51:34;6.87;;;5.90;;
9224;SDS011;4647;48.072;11.616;2023-02-28T01:54:14;6.93;;;5.70;;
9224;SDS011;4647;48.072;11.616;2023-02-28T01:56:46;6.43;;;5.67;;
9224;SDS011;4647;48.072;11.616;2023-02-28T01:59:24;7.33;;;5.83;;
9224;SDS011;4647;48.072;11.616;2023-02-28T02:01:57;7.63;;;6.10;;
9224;SDS011;4647;48.072;11.616;2023-02-28T02:04:27;6.53;;;5.50;;
9224;SDS011;4647;48.072;11.616;2023-02-28T02:07:02;6.57;;;5.10;;
9224;SDS011;4647;48.072;11.616;2023-02-28T02:09:33;7.60;;;5.80;;
9224;SDS011;4647;48.072;11.616;2023-02-28T02:12:03;7.10;;;6.10;;
9224;SDS011;4647;48.072;11.616;2023-02-28T02:14:49;6.33;;;5.73;;
9224;SDS011;4647;48.072;11.616;2023-02-28T02:17:30;6.30;;;5.70;;
9224;SDS011;4647;48.072;11.616;2023-02-28T02:20:16;7.57;;;6.77;;
9224;SDS011;4647;48.072;11.616;2023-02-28T02:23:23;7.77;;;5.50;;
9224;SDS011;4647;48.072;11.616;2023-02-28T02:26:06;6.60;;;5.63;;
9224;SDS011;4647;48.072;11.616;2023-02-28T02:29:02;8.20;;;5.80;;
9224;SDS011;4647;48.072;11.616;2023-02-28T02:34:58;9.10;;;7.40;;
9224;SDS011;4647;48.072;11.616;2023-02-28T02:37:34;7.17;;;6.37;;
9224;SDS011;4647;48.072;11.616;2023-02-28T02:40:09;8.93;;;6.50;;
9224;SDS011;4647;48.072;11.616;2023-02-28T02:42:45;10.43;;;6.73;;
9224;SDS011;4647;48.072;11.616;2023-02-28T02:45:22;7.77;;;6.90;;
9224;SDS011;4647;48.072;11.616;2023-02-28T02:47:55;6.97;;;6.27;;
9224;SDS011;4647;48.072;11.616;2023-02-28T02:50:30;7.20;;;6.47;;
9224;SDS011;4647;48.072;11.616;2023-02-28T02:53:02;8.13;;;7.17;;
9224;SDS011;4647;48.072;11.616;2023-02-28T02:55:34;7.43;;;6.67;;
9224;SDS011;4647;48.072;11.616;2023-02-28T02:58:07;8.53;;;7.07;;
9224;SDS011;4647;48.072;11.616;2023-02-28T03:00:40;7.40;;;6.60;;
9224;SDS011;4647;48.072;11.616;2023-02-28T03:03:11;8.70;;;7.77;;
9224;SDS011;4647;48.072;11.616;2023-02-28T03:05:46;7.70;;;6.80;;
9224;SDS011;4647;48.072;11.616;2023-02-28T03:08:16;8.40;;;7.37;;
9224;SDS011;4647;48.072;11.616;2023-02-28T03:10:46;11.53;;;7.40;;
9224;SDS011;4647;48.072;11.616;2023-02-28T03:16:20;8.70;;;7.37;;
9224;SDS011;4647;48.072;11.616;2023-02-28T03:19:03;8.30;;;7.40;;
9224;SDS011;4647;48.072;11.616;2023-02-28T03:21:50;8.30;;;7.50;;
9224;SDS011;4647;48.072;11.616;2023-02-28T03:24:30;9.10;;;7.90;;
9224;SDS011;4647;48.072;11.616;2023-02-28T03:27:06;11.57;;;8.63;;
9224;SDS011;4647;48.072;11.616;2023-02-28T03:29:39;9.17;;;8.27;;
9224;SDS011;4647;48.072;11.616;2023-02-28T03:32:13;9.40;;;8.40;;
9224;SDS011;4647;48.072;11.616;2023-02-28T03:34:50;9.47;;;8.50;;
9224;SDS011;4647;48.072;11.616;2023-02-28T03:37:26;10.13;;;8.43;;
9224;SDS011;4647;48.072;11.616;2023-02-28T03:40:00;10.00;;;9.00;;
9224;SDS011;4647;48.072;11.616;2023-02-28T03:42:36;8.93;;;7.70;;
9224;SDS011;4647;48.072;11.616;2023-02-28T03:45:10;11.07;;;9.57;;
9224;SDS011;4647;48.072;11.616;2023-02-28T03:47:43;10.17;;;9.07;;
9224;SDS011;4647;48.072;11.616;2023-02-28T03:50:16;9.93;;;8.70;;
9224;SDS011;4647;48.072;11.616;2023-02-28T03:52:50;11.27;;;9.03;;
9224;SDS011;4647;48.072;11.616;2023-02-28T03:55:26;11.63;;;9.27;;
9224;SDS011;4647;48.072;11.616;2023-02-28T03:57:59;10.90;;;9.30;;
9224;SDS011;4647;48.072;11.616;2023-02-28T04:00:33;10.57;;;9.20;;
9224;SDS011;4647;48.072;11.616;2023-02-28T04:03:05;10.47;;;9.37;;
9224;SDS011;4647;48.072;11.616;2023-02-28T04:05:35;11.73;;;10.43;;
9224;SDS011;4647;48.072;11.616;2023-02-28T04:08:19;11.30;;;9.67;;
9224;SDS011;4647;48.072;11.616;2023-02-28T04:10:50;13.00;;;9.90;;
9224;SDS011;4647;48.072;11.616;2023-02-28T04:13:25;12.20;;;10.93;;
9224;SDS011;4647;48.072;11.616;2023-02-28T04:15:53;14.63;;;11.60;;
9224;SDS011;4647;48.072;11.616;2023-02-28T04:18:22;12.43;;;11.07;;
9224;SDS011;4647;48.072;11.616;2023-02-28T04:20:50;14.30;;;12.10;;
9224;SDS011;4647;48.072;11.616;2023-02-28T04:23:21;13.47;;;11.90;;
9224;SDS011;4647;48.072;11.616;2023-02-28T04:25:50;13.80;;;11.13;;
9224;SDS011;4647;48.072;11.616;2023-02-28T04:28:18;12.83;;;11.50;;
9224;SDS011;4647;48.072;11.616;2023-02-28T04:30:47;14.10;;;12.07;;
9224;SDS011;4647;48.072;11.616;2023-02-28T04:33:21;14.87;;;12.03;;
9224;SDS011;4647;48.072;11.616;2023-02-28T04:35:57;14.97;;;13.20;;
9224;SDS011;4647;48.072;11.616;2023-02-28T04:38:31;14.30;;;12.77;;
9224;SDS011;4647;48.072;11.616;2023-02-28T04:41:01;14.00;;;12.13;;
9224;SDS011;4647;48.072;11.616;2023-02-28T04:43:29;14.27;;;12.70;;
9224;SDS011;4647;48.072;11.616;2023-02-28T04:46:00;15.60;;;12.73;;
9224;SDS011;4647;48.072;11.616;2023-02-28T04:48:31;16.33;;;12.77;;
9224;SDS011;4647;48.072;11.616;2023-02-28T04:51:02;14.63;;;13.07;;
9224;SDS011;4647;48.072;11.616;2023-02-28T04:53:36;15.17;;;13.57;;
9224;SDS011;4647;48.072;11.616;2023-02-28T04:56:06;13.73;;;12.30;;
9224;SDS011;4647;48.072;11.616;2023-02-28T04:58:35;16.60;;;13.33;;
9224;SDS011;4647;48.072;11.616;2023-02-28T05:01:05;17.07;;;13.10;;
9224;SDS011;4647;48.072;11.616;2023-02-28T05:03:40;15.23;;;13.20;;
9224;SDS011;4647;48.072;11.616;2023-02-28T05:06:09;15.20;;;13.60;;
9224;SDS011;4647;48.072;11.616;2023-02-28T05:08:41;14.87;;;13.27;;
9224;SDS011;4647;48.072;11.616;2023-02-28T05:11:13;16.10;;;12.97;;
9224;SDS011;4647;48.072;11.616;2023-02-28T05:13:43;18.83;;;14.43;;
9224;SDS011;4647;48.072;11.616;2023-02-28T05:16:12;15.53;;;13.87;;
9224;SDS011;4647;48.072;11.616;2023-02-28T05:18:42;16.40;;;14.07;;
9224;SDS011;4647;48.072;11.616;2023-02-28T05:24:04;15.80;;;14.13;;
9224;SDS011;4647;48.072;11.616;2023-02-28T05:26:34;17.67;;;15.77;;
9224;SDS011;4647;48.072;11.616;2023-02-28T05:29:03;16.07;;;13.67;;
9224;SDS011;4647;48.072;11.616;2023-02-28T05:31:32;15.53;;;13.77;;
9224;SDS011;4647;48.072;11.616;2023-02-28T05:34:01;15.60;;;13.90;;
9224;SDS011;4647;48.072;11.616;2023-02-28T05:36:30;15.73;;;14.10;;
9224;SDS011;4647;48.072;11.616;2023-02-28T05:38:59;16.87;;;14.93;;
9224;SDS011;4647;48.072;11.616;2023-02-28T05:41:30;16.37;;;13.67;;
9224;SDS011;4647;48.072;11.616;2023-02-28T05:43:59;19.87;;;15.87;;
9224;SDS011;4647;48.072;11.616;2023-02-28T05:46:27;17.10;;;13.87;;
9224;SDS011;4647;48.072;11.616;2023-02-28T05:48:56;17.57;;;15.70;;
9224;SDS011;4647;48.072;11.616;2023-02-28T05:51:25;16.90;;;15.10;;
9224;SDS011;4647;48.072;11.616;2023-02-28T05:53:54;17.20;;;15.00;;
9224;SDS011;4647;48.072;11.616;2023-02-28T05:56:22;17.83;;;15.43;;
9224;SDS011;4647;48.072;11.616;2023-02-28T05:58:53;17.43;;;15.67;;
9224;SDS011;4647;48.072;11.616;2023-02-28T06:01:23;17.43;;;15.57;;
9224;SDS011;4647;48.072;11.616;2023-02-28T06:03:58;18.27;;;15.60;;
9224;SDS011;4647;48.072;11.616;2023-02-28T06:06:27;19.57;;;17.20;;
9224;SDS011;4647;48.072;11.616;2023-02-28T06:08:59;20.37;;;17.37;;
9224;SDS011;4647;48.072;11.616;2023-02-28T06:11:28;19.87;;;17.70;;
9224;SDS011;4647;48.072;11.616;2023-02-28T06:13:59;19.70;;;16.50;;
9224;SDS011;4647;48.072;11.616;2023-02-28T06:16:29;18.93;;;16.93;;
9224;SDS011;4647;48.072;11.616;2023-02-28T06:18:59;18.47;;;16.17;;
9224;SDS011;4647;48.072;11.616;2023-02-28T06:21:29;19.03;;;16.97;;
9224;SDS011;4647;48.072;11.616;2023-02-28T06:23:58;19.83;;;16.03;;
9224;SDS011;4647;48.072;11.616;2023-02-28T06:26:26;18.53;;;16.57;;
9224;SDS011;4647;48.072;11.616;2023-02-28T06:28:55;20.00;;;17.90;;
9224;SDS011;4647;48.072;11.616;2023-02-28T06:31:28;18.13;;;16.23;;
9224;SDS011;4647;48.072;11.616;2023-02-28T06:33:56;19.13;;;17.13;;
9224;SDS011;4647;48.072;11.616;2023-02-28T06:36:25;20.33;;;17.27;;
9224;SDS011;4647;48.072;11.616;2023-02-28T06:38:53;20.20;;;17.73;;
9224;SDS011;4647;48.072;11.616;2023-02-28T06:41:22;21.00;;;18.70;;
9224;SDS011;4647;48.072;11.616;2023-02-28T06:43:51;20.57;;;17.07;;
9224;SDS011;4647;48.072;11.616;2023-02-28T06:46:23;19.17;;;16.77;;
9224;SDS011;4647;48.072;11.616;2023-02-28T06:48:51;19.63;;;17.57;;
9224;SDS011;4647;48.072;11.616;2023-02-28T06:51:20;18.20;;;16.27;;
9224;SDS011;4647;48.072;11.616;2023-02-28T06:56:25;18.20;;;16.30;;
9224;SDS011;4647;48.072;11.616;2023-02-28T06:58:53;20.07;;;17.97;;
9224;SDS011;4647;48.072;11.616;2023-02-28T07:01:24;20.67;;;18.57;;
9224;SDS011;4647;48.072;11.616;2023-02-28T07:03:53;18.90;;;16.90;;
9224;SDS011;4647;48.072;11.616;2023-02-28T07:06:22;19.37;;;17.27;;
9224;SDS011;4647;48.072;11.616;2023-02-28T07:08:52;18.87;;;16.97;;
9224;SDS011;4647;48.072;11.616;2023-02-28T07:11:21;19.57;;;17.23;;
9224;SDS011;4647;48.072;11.616;2023-02-28T07:13:53;20.63;;;18.63;;
9224;SDS011;4647;48.072;11.616;2023-02-28T07:16:25;20.63;;;17.57;;
9224;SDS011;4647;48.072;11.616;2023-02-28T07:18:53;20.23;;;17.50;;
9224;SDS011;4647;48.072;11.616;2023-02-28T07:21:22;20.03;;;17.30;;
9224;SDS011;4647;48.072;11.616;2023-02-28T07:23:51;22.27;;;18.73;;
9224;SDS011;4647;48.072;11.616;2023-02-28T07:26:19;19.80;;;17.07;;
9224;SDS011;4647;48.072;11.616;2023-02-28T07:28:49;20.37;;;18.27;;
9224;SDS011;4647;48.072;11.616;2023-02-28T07:31:19;21.80;;;19.50;;
9224;SDS011;4647;48.072;11.616;2023-02-28T07:33:50;20.63;;;18.33;;
9224;SDS011;4647;48.072;11.616;2023-02-28T07:36:19;20.60;;;18.40;;
9224;SDS011;4647;48.072;11.616;2023-02-28T07:38:48;22.07;;;17.70;;
9224;SDS011;4647;48.072;11.616;2023-02-28T07:41:18;20.23;;;17.77;;
9224;SDS011;4647;48.072;11.616;2023-02-28T07:43:49;20.47;;;18.43;;
9224;SDS011;4647;48.072;11.616;2023-02-28T07:46:17;21.53;;;19.27;;
9224;SDS011;4647;48.072;11.616;2023-02-28T07:48:46;20.90;;;18.80;;
9224;SDS011;4647;48.072;11.616;2023-02-28T07:51:17;20.37;;;17.37;;
9224;SDS011;4647;48.072;11.616;2023-02-28T07:53:45;21.33;;;19.10;;
9224;SDS011;4647;48.072;11.616;2023-02-28T07:56:14;20.77;;;18.67;;
9224;SDS011;4647;48.072;11.616;2023-02-28T07:58:42;21.47;;;18.50;;
9224;SDS011;4647;48.072;11.616;2023-02-28T08:01:11;22.77;;;20.57;;
9224;SDS011;4647;48.072;11.616;2023-02-28T08:03:40;22.23;;;19.93;;
9224;SDS011;4647;48.072;11.616;2023-02-28T08:06:15;23.00;;;18.67;;
9224;SDS011;4647;48.072;11.616;2023-02-28T08:08:48;20.57;;;17.73;;
9224;SDS011;4647;48.072;11.616;2023-02-28T08:11:17;22.00;;;18.53;;
9224;SDS011;4647;48.072;11.616;2023-02-28T08:13:46;21.30;;;18.93;;
9224;SDS011;4647;48.072;11.616;2023-02-28T08:16:14;20.93;;;18.83;;
9224;SDS011;4647;48.072;11.616;2023-02-28T08:18:47;20.73;;;18.63;;
9224;SDS011;4647;48.072;11.616;2023-02-28T08:21:19;21.00;;;18.80;;
9224;SDS011;4647;48.072;11.616;2023-02-28T08:23:48;21.30;;;19.07;;
9224;SDS011;4647;48.072;11.616;2023-02-28T08:26:18;21.10;;;18.80;;
9224;SDS011;4647;48.072;11.616;2023-02-28T08:28:46;24.47;;;19.40;;
9224;SDS011;4647;48.072;11.616;2023-02-28T08:31:15;21.27;;;19.07;;
9224;SDS011;4647;48.072;11.616;2023-02-28T08:33:45;22.43;;;19.77;;
9224;SDS011;4647;48.072;11.616;2023-02-28T08:36:14;24.83;;;19.70;;
9224;SDS011;4647;48.072;11.616;2023-02-28T08:38:46;22.40;;;20.10;;
9224;SDS011;4647;48.072;11.616;2023-02-28T08:41:15;21.53;;;19.23;;
9224;SDS011;4647;48.072;11.616;2023-02-28T08:43:43;21.73;;;19.53;;
9224;SDS011;4647;48.072;11.616;2023-02-28T08:46:12;22.47;;;18.57;;
9224;SDS011;4647;48.072;11.616;2023-02-28T08:48:41;21.57;;;19.27;;
9224;SDS011;4647;48.072;11.616;2023-02-28T08:51:11;22.80;;;19.43;;
9224;SDS011;4647;48.072;11.616;2023-02-28T08:53:43;22.57;;;20.27;;
9224;SDS011;4647;48.072;11.616;2023-02-28T08:56:14;22.70;;;18.67;;
9224;SDS011;4647;48.072;11.616;2023-02-28T08:58:46;21.63;;;19.37;;
9224;SDS011;4647;48.072;11.616;2023-02-28T09:01:15;20.50;;;18.40;;
9224;SDS011;4647;48.072;11.616;2023-02-28T09:03:45;21.90;;;19.60;;
9224;SDS011;4647;48.072;11.616;2023-02-28T09:06:15;22.50;;;19.17;;
9224;SDS011;4647;48.072;11.616;2023-02-28T09:08:47;20.37;;;18.17;;
9224;SDS011;4647;48.072;11.616;2023-02-28T09:11:17;19.70;;;17.70;;
9224;SDS011;4647;48.072;11.616;2023-02-28T09:13:46;20.93;;;18.23;;
9224;SDS011;4647;48.072;11.616;2023-02-28T09:16:15;20.70;;;18.63;;
9224;SDS011;4647;48.072;11.616;2023-02-28T09:18:44;20.23;;;18.07;;
9224;SDS011;4647;48.072;11.616;2023-02-28T09:21:14;23.77;;;19.40;;
9224;SDS011;4647;48.072;11.616;2023-02-28T09:23:48;20.77;;;18.57;;
9224;SDS011;4647;48.072;11.616;2023-02-28T09:26:19;22.63;;;18.93;;
9224;SDS011;4647;48.072;11.616;2023-02-28T09:28:48;19.63;;;17.63;;
9224;SDS011;4647;48.072;11.616;2023-02-28T09:31:18;19.60;;;17.60;;
9224;SDS011;4647;48.072;11.616;2023-02-28T09:33:49;19.40;;;17.40;;
9224;SDS011;4647;48.072;11.616;2023-02-28T09:36:19;19.90;;;17.90;;
9224;SDS011;4647;48.072;11.616;2023-02-28T09:38:50;21.00;;;18.90;;
9224;SDS011;4647;48.072;11.616;2023-02-28T09:41:20;21.27;;;17.93;;
9224;SDS011;4647;48.072;11.616;2023-02-28T09:43:52;21.07;;;18.90;;
9224;SDS011;4647;48.072;11.616;2023-02-28T09:46:28;19.60;;;17.60;;
9224;SDS011;4647;48.072;11.616;2023-02-28T09:49:01;18.97;;;16.93;;
9224;SDS011;4647;48.072;11.616;2023-02-28T09:51:34;29.50;;;18.40;;
9224;SDS011;4647;48.072;11.616;2023-02-28T09:54:17;22.57;;;17.50;;
9224;SDS011;4647;48.072;11.616;2023-02-28T09:56:49;24.20;;;21.83;;
9224;SDS011;4647;48.072;11.616;2023-02-28T09:59:34;21.93;;;19.57;;
9224;SDS011;4647;48.072;11.616;2023-02-28T10:02:15;22.37;;;17.83;;
9224;SDS011;4647;48.072;11.616;2023-02-28T10:04:53;20.77;;;18.57;;
9224;SDS011;4647;48.072;11.616;2023-02-28T10:07:32;20.87;;;17.90;;
9224;SDS011;4647;48.072;11.616;2023-02-28T10:10:20;21.20;;;17.87;;
9224;SDS011;4647;48.072;11.616;2023-02-28T10:12:51;20.67;;;18.23;;
9224;SDS011;4647;48.072;11.616;2023-02-28T10:15:23;22.07;;;19.33;;
9224;SDS011;4647;48.072;11.616;2023-02-28T10:17:54;20.30;;;18.17;;
9224;SDS011;4647;48.072;11.616;2023-02-28T10:20:27;24.23;;;19.53;;
9224;SDS011;4647;48.072;11.616;2023-02-28T10:23:00;21.90;;;18.37;;
9224;SDS011;4647;48.072;11.616;2023-02-28T10:25:36;26.60;;;18.27;;
9224;SDS011;4647;48.072;11.616;2023-02-28T10:28:10;21.47;;;19.13;;
9224;SDS011;4647;48.072;11.616;2023-02-28T10:30:40;21.00;;;18.23;;
9224;SDS011;4647;48.072;11.616;2023-02-28T10:33:22;21.67;;;19.23;;
9224;SDS011;4647;48.072;11.616;2023-02-28T10:35:52;19.60;;;17.60;;
9224;SDS011;4647;48.072;11.616;2023-02-28T10:38:21;20.17;;;18.20;;
9224;SDS011;4647;48.072;11.616;2023-02-28T10:40:55;21.13;;;18.57;;
9224;SDS011;4647;48.072;11.616;2023-02-28T10:43:31;22.53;;;18.77;;
9224;SDS011;4647;48.072;11.616;2023-02-28T10:46:02;20.00;;;17.90;;
9224;SDS011;4647;48.072;11.616;2023-02-28T10:48:33;22.77;;;18.50;;
9224;SDS011;4647;48.072;11.616;2023-02-28T10:51:02;31.17;;;18.60;;
9224;SDS011;4647;48.072;11.616;2023-02-28T10:53:35;24.00;;;18.67;;
9224;SDS011;4647;48.072;11.616;2023-02-28T10:56:14;20.87;;;18.67;;
9224;SDS011;4647;48.072;11.616;2023-02-28T10:58:47;22.27;;;19.37;;
9224;SDS011;4647;48.072;11.616;2023-02-28T11:01:19;24.27;;;17.67;;
9224;SDS011;4647;48.072;11.616;2023-02-28T11:03:49;26.70;;;19.70;;
9224;SDS011;4647;48.072;11.616;2023-02-28T11:06:20;22.33;;;19.63;;
9224;SDS011;4647;48.072;11.616;2023-02-28T11:08:52;22.07;;;19.53;;
9224;SDS011;4647;48.072;11.616;2023-02-28T11:11:25;26.27;;;19.57;;
9224;SDS011;4647;48.072;11.616;2023-02-28T11:13:56;23.90;;;18.63;;
9224;SDS011;4647;48.072;11.616;2023-02-28T11:16:32;21.00;;;18.57;;
9224;SDS011;4647;48.072;11.616;2023-02-28T11:19:03;21.43;;;19.23;;
9224;SDS011;4647;48.072;11.616;2023-02-28T11:21:36;21.03;;;18.37;;
9224;SDS011;4647;48.072;11.616;2023-02-28T11:24:07;21.20;;;19.00;;
9224;SDS011;4647;48.072;11.616;2023-02-28T11:26:50;22.63;;;17.50;;
9224;SDS011;4647;48.072;11.616;2023-02-28T11:29:19;19.77;;;17.70;;
9224;SDS011;4647;48.072;11.616;2023-02-28T11:32:07;19.97;;;16.60;;
9224;SDS011;4647;48.072;11.616;2023-02-28T11:34:41;19.83;;;17.73;;
9224;SDS011;4647;48.072;11.616;2023-02-28T11:37:12;22.37;;;16.20;;
9224;SDS011;4647;48.072;11.616;2023-02-28T11:39:43;18.87;;;16.13;;
9224;SDS011;4647;48.072;11.616;2023-02-28T11:42:19;20.70;;;16.53;;
9224;SDS011;4647;48.072;11.616;2023-02-28T11:45:03;18.07;;;16.20;;
9224;SDS011;4647;48.072;11.616;2023-02-28T11:47:52;20.13;;;17.43;;
9224;SDS011;4647;48.072;11.616;2023-02-28T11:50:31;20.93;;;16.50;;
9224;SDS011;4647;48.072;11.616;2023-02-28T11:53:14;17.13;;;15.27;;
9224;SDS011;4647;48.072;11.616;2023-02-28T11:55:51;21.53;;;17.13;;
9224;SDS011;4647;48.072;11.616;2023-02-28T11:58:33;28.20;;;15.27;;
9224;SDS011;4647;48.072;11.616;2023-02-28T12:01:14;27.57;;;16.20;;
9224;SDS011;4647;48.072;11.616;2023-02-28T12:03:56;21.30;;;15.77;;
9224;SDS011;4647;48.072;11.616;2023-02-28T12:06:32;18.20;;;16.37;;
9224;SDS011;4647;48.072;11.616;2023-02-28T12:09:10;20.00;;;16.07;;
9224;SDS011;4647;48.072;11.616;2023-02-28T12:11:52;23.27;;;16.70;;
9224;SDS011;4647;48.072;11.616;2023-02-28T12:14:43;18.93;;;17.00;;
9224;SDS011;4647;48.072;11.616;2023-02-28T12:17:24;23.47;;;16.87;;
9224;SDS011;4647;48.072;11.616;2023-02-28T12:20:05;20.27;;;17.23;;
9224;SDS011;4647;48.072;11.616;2023-02-28T12:22:47;21.30;;;17.77;;
9224;SDS011;4647;48.072;11.616;2023-02-28T12:28:13;20.60;;;16.90;;
9224;SDS011;4647;48.072;11.616;2023-02-28T12:30:49;18.67;;;16.67;;
9224;SDS011;4647;48.072;11.616;2023-02-28T12:33:22;21.23;;;17.30;;
9224;SDS011;4647;48.072;11.616;2023-02-28T12:35:57;21.47;;;17.63;;
9224;SDS011;4647;48.072;11.616;2023-02-28T12:38:29;19.50;;;17.47;;
9224;SDS011;4647;48.072;11.616;2023-02-28T12:41:03;23.97;;;18.23;;
9224;SDS011;4647;48.072;11.616;2023-02-28T12:43:38;18.47;;;16.67;;
9224;SDS011;4647;48.072;11.616;2023-02-28T12:46:15;18.53;;;16.60;;
9224;SDS011;4647;48.072;11.616;2023-02-28T12:48:48;19.80;;;16.50;;
9224;SDS011;4647;48.072;11.616;2023-02-28T12:51:21;19.23;;;17.20;;
9224;SDS011;4647;48.072;11.616;2023-02-28T12:54:01;19.50;;;17.60;;
9224;SDS011;4647;48.072;11.616;2023-02-28T12:56:38;20.73;;;17.50;;
9224;SDS011;4647;48.072;11.616;2023-02-28T12:59:19;19.47;;;17.47;;
9224;SDS011;4647;48.072;11.616;2023-02-28T13:05:10;18.83;;;16.93;;
9224;SDS011;4647;48.072;11.616;2023-02-28T13:08:03;19.40;;;17.40;;
9224;SDS011;4647;48.072;11.616;2023-02-28T13:10:52;21.40;;;16.97;;
9224;SDS011;4647;48.072;11.616;2023-02-28T13:13:22;19.80;;;17.73;;
9224;SDS011;4647;48.072;11.616;2023-02-28T13:16:02;20.83;;;17.03;;
9224;SDS011;4647;48.072;11.616;2023-02-28T13:18:39;19.20;;;16.10;;
9224;SDS011;4647;48.072;11.616;2023-02-28T13:21:22;19.00;;;17.03;;
9224;SDS011;4647;48.072;11.616;2023-02-28T13:24:00;21.17;;;16.27;;
9224;SDS011;4647;48.072;11.616;2023-02-28T13:29:30;20.73;;;16.03;;
9224;SDS011;4647;48.072;11.616;2023-02-28T13:40:52;19.57;;;16.93;;
9224;SDS011;4647;48.072;11.616;2023-02-28T13:43:23;19.80;;;16.67;;
9224;SDS011;4647;48.072;11.616;2023-02-28T13:46:32;18.67;;;16.30;;
9224;SDS011;4647;48.072;11.616;2023-02-28T13:51:51;19.87;;;16.97;;
9224;SDS011;4647;48.072;11.616;2023-02-28T13:54:24;17.87;;;15.90;;
9224;SDS011;4647;48.072;11.616;2023-02-28T13:57:17;20.70;;;17.10;;
9224;SDS011;4647;48.072;11.616;2023-02-28T13:59:56;17.57;;;15.73;;
9224;SDS011;4647;48.072;11.616;2023-02-28T14:02:52;23.23;;;16.47;;
9224;SDS011;4647;48.072;11.616;2023-02-28T14:05:38;18.93;;;16.93;;
9224;SDS011;4647;48.072;11.616;2023-02-28T14:08:10;21.10;;;16.67;;
9224;SDS011;4647;48.072;11.616;2023-02-28T14:10:44;21.00;;;15.90;;
9224;SDS011;4647;48.072;11.616;2023-02-28T14:16:09;20.63;;;15.87;;
9224;SDS011;4647;48.072;11.616;2023-02-28T14:18:41;19.87;;;16.27;;
9224;SDS011;4647;48.072;11.616;2023-02-28T14:21:19;18.87;;;16.87;;
9224;SDS011;4647;48.072;11.616;2023-02-28T14:27:22;19.23;;;15.93;;
9224;SDS011;4647;48.072;11.616;2023-02-28T14:30:05;18.93;;;16.93;;
9224;SDS011;4647;48.072;11.616;2023-02-28T14:32:58;19.23;;;15.83;;
9224;SDS011;4647;48.072;11.616;2023-02-28T14:35:40;18.33;;;16.27;;
9224;SDS011;4647;48.072;11.616;2023-02-28T14:38:19;19.10;;;17.10;;
9224;SDS011;4647;48.072;11.616;2023-02-28T14:40:53;20.13;;;16.90;;
9224;SDS011;4647;48.072;11.616;2023-02-28T14:43:28;20.13;;;16.90;;
9224;SDS011;4647;48.072;11.616;2023-02-28T14:45:58;20.00;;;16.87;;
9224;SDS011;4647;48.072;11.616;2023-02-28T14:48:28;18.13;;;16.30;;
9224;SDS011;4647;48.072;11.616;2023-02-28T14:50:57;19.77;;;17.23;;
9224;SDS011;4647;48.072;11.616;2023-02-28T14:53:29;18.53;;;16.80;;
9224;SDS011;4647;48.072;11.616;2023-02-28T14:56:03;19.27;;;16.70;;
9224;SDS011;4647;48.072;11.616;2023-02-28T14:58:36;18.77;;;16.77;;
9224;SDS011;4647;48.072;11.616;2023-02-28T15:01:05;21.17;;;16.60;;
9224;SDS011;4647;48.072;11.616;2023-02-28T15:03:34;18.93;;;16.30;;
9224;SDS011;4647;48.072;11.616;2023-02-28T15:06:04;18.93;;;15.67;;
9224;SDS011;4647;48.072;11.616;2023-02-28T15:08:34;18.87;;;16.47;;
9224;SDS011;4647;48.072;11.616;2023-02-28T15:11:03;18.43;;;16.33;;
9224;SDS011;4647;48.072;11.616;2023-02-28T15:13:38;19.43;;;16.70;;
9224;SDS011;4647;48.072;11.616;2023-02-28T15:16:10;17.70;;;15.80;;
9224;SDS011;4647;48.072;11.616;2023-02-28T15:18:43;21.50;;;17.23;;
9224;SDS011;4647;48.072;11.616;2023-02-28T15:21:14;20.87;;;16.60;;
9224;SDS011;4647;48.072;11.616;2023-02-28T15:23:45;20.40;;;16.27;;
9224;SDS011;4647;48.072;11.616;2023-02-28T15:26:18;21.87;;;16.80;;
9224;SDS011;4647;48.072;11.616;2023-02-28T15:28:53;22.43;;;17.40;;
9224;SDS011;4647;48.072;11.616;2023-02-28T15:31:32;20.73;;;16.93;;
9224;SDS011;4647;48.072;11.616;2023-02-28T15:34:03;21.33;;;16.60;;
9224;SDS011;4647;48.072;11.616;2023-02-28T15:36:33;19.67;;;17.47;;
9224;SDS011;4647;48.072;11.616;2023-02-28T15:39:16;21.87;;;16.90;;
9224;SDS011;4647;48.072;11.616;2023-02-28T15:41:48;18.20;;;15.80;;
9224;SDS011;4647;48.072;11.616;2023-02-28T15:44:23;17.00;;;15.20;;
9224;SDS011;4647;48.072;11.616;2023-02-28T15:46:57;20.40;;;15.07;;
9224;SDS011;4647;48.072;11.616;2023-02-28T15:49:27;17.07;;;14.53;;
9224;SDS011;4647;48.072;11.616;2023-02-28T15:51:58;17.27;;;15.60;;
9224;SDS011;4647;48.072;11.616;2023-02-28T15:54:28;20.57;;;16.57;;